sensor_id;sensor_type;location;lat;lon;timestamp;P1;durP1;ratioP1;P2;durP2;ratioP2
41667;SDS011;27356;50.920;5.350;2023-03-01T00:01:09;13.05;;;7.55;;
41667;SDS011;27356;50.920;5.350;2023-03-01T00:03:36;10.77;;;7.22;;
41667;SDS011;27356;50.920;5.350;2023-03-01T00:06:02;15.73;;;8.13;;
41667;SDS011;27356;50.920;5.350;2023-03-01T00:08:32;12.18;;;8.23;;
41667;SDS011;27356;50.920;5.350;2023-03-01T00:11:09;10.50;;;7.72;;
41667;SDS011;27356;50.920;5.350;2023-03-01T00:13:50;14.40;;;7.50;;
41667;SDS011;27356;50.920;5.350;2023-03-01T00:16:21;12.15;;;7.57;;
41667;SDS011;27356;50.920;5.350;2023-03-01T00:18:49;11.25;;;7.90;;
41667;SDS011;27356;50.920;5.350;2023-03-01T00:21:15;11.43;;;7.53;;
41667;SDS011;27356;50.920;5.350;2023-03-01T00:23:42;15.27;;;8.43;;
41667;SDS011;27356;50.920;5.350;2023-03-01T00:26:09;12.85;;;8.55;;
41667;SDS011;27356;50.920;5.350;2023-03-01T00:28:37;12.85;;;9.07;;
41667;SDS011;27356;50.920;5.350;2023-03-01T00:31:10;21.75;;;9.48;;
41667;SDS011;27356;50.920;5.350;2023-03-01T00:33:40;13.55;;;8.25;;
41667;SDS011;27356;50.920;5.350;2023-03-01T00:36:06;11.63;;;8.18;;
41667;SDS011;27356;50.920;5.350;2023-03-01T00:38:41;16.00;;;8.73;;
41667;SDS011;27356;50.920;5.350;2023-03-01T00:41:09;14.88;;;8.88;;
41667;SDS011;27356;50.920;5.350;2023-03-01T00:43:37;13.50;;;8.25;;
41667;SDS011;27356;50.920;5.350;2023-03-01T00:46:07;13.50;;;8.43;;
41667;SDS011;27356;50.920;5.350;2023-03-01T00:48:34;11.55;;;7.28;;
41667;SDS011;27356;50.920;5.350;2023-03-01T00:51:08;16.38;;;7.78;;
41667;SDS011;27356;50.920;5.350;2023-03-01T00:53:38;12.27;;;7.18;;
41667;SDS011;27356;50.920;5.350;2023-03-01T00:56:05;12.77;;;7.93;;
41667;SDS011;27356;50.920;5.350;2023-03-01T00:58:35;10.98;;;7.78;;
41667;SDS011;27356;50.920;5.350;2023-03-01T01:01:06;10.32;;;7.80;;
41667;SDS011;27356;50.920;5.350;2023-03-01T01:03:42;12.00;;;7.80;;
41667;SDS011;27356;50.920;5.350;2023-03-01T01:06:13;12.57;;;7.85;;
41667;SDS011;27356;50.920;5.350;2023-03-01T01:08:40;14.45;;;8.50;;
41667;SDS011;27356;50.920;5.350;2023-03-01T01:11:05;11.98;;;7.75;;
41667;SDS011;27356;50.920;5.350;2023-03-01T01:13:34;10.50;;;8.02;;
41667;SDS011;27356;50.920;5.350;2023-03-01T01:16:00;13.93;;;9.05;;
41667;SDS011;27356;50.920;5.350;2023-03-01T01:18:26;10.90;;;7.60;;
41667;SDS011;27356;50.920;5.350;2023-03-01T01:20:52;11.05;;;7.80;;
41667;SDS011;27356;50.920;5.350;2023-03-01T01:23:18;13.02;;;8.57;;
41667;SDS011;27356;50.920;5.350;2023-03-01T01:25:44;13.90;;;8.10;;
41667;SDS011;27356;50.920;5.350;2023-03-01T01:28:09;15.27;;;9.50;;
41667;SDS011;27356;50.920;5.350;2023-03-01T01:30:35;12.52;;;7.80;;
41667;SDS011;27356;50.920;5.350;2023-03-01T01:33:01;14.05;;;7.60;;
41667;SDS011;27356;50.920;5.350;2023-03-01T01:35:27;10.38;;;7.45;;
41667;SDS011;27356;50.920;5.350;2023-03-01T01:37:53;12.13;;;7.53;;
41667;SDS011;27356;50.920;5.350;2023-03-01T01:40:18;16.15;;;8.80;;
41667;SDS011;27356;50.920;5.350;2023-03-01T01:42:47;10.38;;;7.63;;
41667;SDS011;27356;50.920;5.350;2023-03-01T01:45:30;13.13;;;8.07;;
41667;SDS011;27356;50.920;5.350;2023-03-01T01:48:12;12.52;;;8.60;;
41667;SDS011;27356;50.920;5.350;2023-03-01T01:50:41;15.57;;;9.48;;
41667;SDS011;27356;50.920;5.350;2023-03-01T01:53:11;13.65;;;8.25;;
41667;SDS011;27356;50.920;5.350;2023-03-01T01:55:41;11.32;;;8.23;;
41667;SDS011;27356;50.920;5.350;2023-03-01T01:58:11;13.32;;;8.48;;
41667;SDS011;27356;50.920;5.350;2023-03-01T02:00:40;10.60;;;8.40;;
41667;SDS011;27356;50.920;5.350;2023-03-01T02:03:08;11.15;;;8.65;;
41667;SDS011;27356;50.920;5.350;2023-03-01T02:08:16;14.35;;;8.68;;
41667;SDS011;27356;50.920;5.350;2023-03-01T02:10:44;12.15;;;8.20;;
41667;SDS011;27356;50.920;5.350;2023-03-01T02:13:11;12.77;;;8.77;;
41667;SDS011;27356;50.920;5.350;2023-03-01T02:15:38;15.00;;;8.20;;
41667;SDS011;27356;50.920;5.350;2023-03-01T02:18:06;13.90;;;8.60;;
41667;SDS011;27356;50.920;5.350;2023-03-01T02:20:42;13.20;;;9.25;;
41667;SDS011;27356;50.920;5.350;2023-03-01T02:23:29;15.63;;;9.50;;
41667;SDS011;27356;50.920;5.350;2023-03-01T02:26:39;12.52;;;9.18;;
41667;SDS011;27356;50.920;5.350;2023-03-01T02:28:43;13.07;;;8.38;;
41667;SDS011;27356;50.920;5.350;2023-03-01T02:31:10;13.25;;;9.18;;
41667;SDS011;27356;50.920;5.350;2023-03-01T02:34:00;11.40;;;8.07;;
41667;SDS011;27356;50.920;5.350;2023-03-01T02:36:30;13.43;;;8.93;;
41667;SDS011;27356;50.920;5.350;2023-03-01T02:39:00;13.65;;;8.50;;
41667;SDS011;27356;50.920;5.350;2023-03-01T02:41:30;13.48;;;9.18;;
41667;SDS011;27356;50.920;5.350;2023-03-01T02:43:59;18.30;;;8.70;;
41667;SDS011;27356;50.920;5.350;2023-03-01T02:46:25;12.27;;;8.98;;
41667;SDS011;27356;50.920;5.350;2023-03-01T02:48:52;15.20;;;9.95;;
41667;SDS011;27356;50.920;5.350;2023-03-01T02:56:38;15.18;;;9.85;;
41667;SDS011;27356;50.920;5.350;2023-03-01T02:59:05;16.40;;;9.57;;
41667;SDS011;27356;50.920;5.350;2023-03-01T03:01:32;13.85;;;9.77;;
41667;SDS011;27356;50.920;5.350;2023-03-01T03:04:04;19.42;;;11.18;;
41667;SDS011;27356;50.920;5.350;2023-03-01T03:06:32;13.60;;;9.30;;
41667;SDS011;27356;50.920;5.350;2023-03-01T03:08:58;14.27;;;9.70;;
41667;SDS011;27356;50.920;5.350;2023-03-01T03:11:24;15.85;;;9.70;;
41667;SDS011;27356;50.920;5.350;2023-03-01T03:13:50;15.70;;;10.13;;
41667;SDS011;27356;50.920;5.350;2023-03-01T03:16:17;14.88;;;9.57;;
41667;SDS011;27356;50.920;5.350;2023-03-01T03:18:43;16.27;;;10.32;;
41667;SDS011;27356;50.920;5.350;2023-03-01T03:21:10;17.05;;;10.85;;
41667;SDS011;27356;50.920;5.350;2023-03-01T03:23:37;15.15;;;9.85;;
41667;SDS011;27356;50.920;5.350;2023-03-01T03:26:05;17.48;;;11.15;;
41667;SDS011;27356;50.920;5.350;2023-03-01T03:28:31;13.82;;;10.65;;
41667;SDS011;27356;50.920;5.350;2023-03-01T03:30:58;14.98;;;9.85;;
41667;SDS011;27356;50.920;5.350;2023-03-01T03:33:28;21.40;;;11.48;;
41667;SDS011;27356;50.920;5.350;2023-03-01T03:35:54;15.30;;;10.35;;
41667;SDS011;27356;50.920;5.350;2023-03-01T03:38:20;16.73;;;10.45;;
41667;SDS011;27356;50.920;5.350;2023-03-01T03:40:48;17.58;;;10.80;;
41667;SDS011;27356;50.920;5.350;2023-03-01T03:43:26;16.98;;;10.40;;
41667;SDS011;27356;50.920;5.350;2023-03-01T03:45:52;14.80;;;10.15;;
41667;SDS011;27356;50.920;5.350;2023-03-01T03:48:19;19.08;;;9.88;;
41667;SDS011;27356;50.920;5.350;2023-03-01T03:50:49;18.15;;;10.80;;
41667;SDS011;27356;50.920;5.350;2023-03-01T03:53:16;22.42;;;10.68;;
41667;SDS011;27356;50.920;5.350;2023-03-01T03:55:43;16.73;;;11.45;;
41667;SDS011;27356;50.920;5.350;2023-03-01T03:58:09;19.50;;;11.35;;
41667;SDS011;27356;50.920;5.350;2023-03-01T04:00:43;16.65;;;10.52;;
41667;SDS011;27356;50.920;5.350;2023-03-01T04:03:10;19.85;;;11.75;;
41667;SDS011;27356;50.920;5.350;2023-03-01T04:05:38;16.10;;;10.98;;
41667;SDS011;27356;50.920;5.350;2023-03-01T04:08:04;16.17;;;10.82;;
41667;SDS011;27356;50.920;5.350;2023-03-01T04:10:37;16.65;;;11.45;;
41667;SDS011;27356;50.920;5.350;2023-03-01T04:13:05;19.23;;;12.07;;
41667;SDS011;27356;50.920;5.350;2023-03-01T04:15:32;22.20;;;11.63;;
41667;SDS011;27356;50.920;5.350;2023-03-01T04:17:59;20.20;;;12.32;;
41667;SDS011;27356;50.920;5.350;2023-03-01T04:20:29;18.00;;;12.32;;
41667;SDS011;27356;50.920;5.350;2023-03-01T04:23:00;17.40;;;11.93;;
41667;SDS011;27356;50.920;5.350;2023-03-01T04:25:36;18.65;;;11.13;;
41667;SDS011;27356;50.920;5.350;2023-03-01T04:28:03;19.67;;;12.10;;
41667;SDS011;27356;50.920;5.350;2023-03-01T04:30:29;21.17;;;11.88;;
41667;SDS011;27356;50.920;5.350;2023-03-01T04:33:03;19.00;;;11.90;;
41667;SDS011;27356;50.920;5.350;2023-03-01T04:35:30;19.50;;;11.88;;
41667;SDS011;27356;50.920;5.350;2023-03-01T04:37:57;17.27;;;13.10;;
41667;SDS011;27356;50.920;5.350;2023-03-01T04:40:22;17.65;;;11.90;;
41667;SDS011;27356;50.920;5.350;2023-03-01T04:42:48;18.58;;;11.90;;
41667;SDS011;27356;50.920;5.350;2023-03-01T04:45:14;23.42;;;12.07;;
41667;SDS011;27356;50.920;5.350;2023-03-01T04:47:40;22.48;;;11.80;;
41667;SDS011;27356;50.920;5.350;2023-03-01T04:50:08;20.60;;;12.50;;
41667;SDS011;27356;50.920;5.350;2023-03-01T04:52:34;22.30;;;12.73;;
41667;SDS011;27356;50.920;5.350;2023-03-01T04:55:00;23.23;;;12.02;;
41667;SDS011;27356;50.920;5.350;2023-03-01T04:57:27;21.23;;;11.88;;
41667;SDS011;27356;50.920;5.350;2023-03-01T04:59:52;21.23;;;12.70;;
41667;SDS011;27356;50.920;5.350;2023-03-01T05:02:18;17.15;;;11.57;;
41667;SDS011;27356;50.920;5.350;2023-03-01T05:04:44;17.90;;;11.40;;
41667;SDS011;27356;50.920;5.350;2023-03-01T05:07:09;19.45;;;11.90;;
41667;SDS011;27356;50.920;5.350;2023-03-01T05:09:38;16.77;;;11.52;;
41667;SDS011;27356;50.920;5.350;2023-03-01T05:12:04;20.13;;;11.82;;
41667;SDS011;27356;50.920;5.350;2023-03-01T05:14:30;17.63;;;12.10;;
41667;SDS011;27356;50.920;5.350;2023-03-01T05:16:56;17.13;;;12.25;;
41667;SDS011;27356;50.920;5.350;2023-03-01T05:19:29;27.65;;;13.57;;
41667;SDS011;27356;50.920;5.350;2023-03-01T05:21:56;21.75;;;12.15;;
41667;SDS011;27356;50.920;5.350;2023-03-01T05:24:32;22.70;;;13.23;;
41667;SDS011;27356;50.920;5.350;2023-03-01T05:26:59;20.13;;;13.55;;
41667;SDS011;27356;50.920;5.350;2023-03-01T05:29:27;22.13;;;13.60;;
41667;SDS011;27356;50.920;5.350;2023-03-01T05:31:55;19.98;;;13.30;;
41667;SDS011;27356;50.920;5.350;2023-03-01T05:34:23;21.42;;;12.88;;
41667;SDS011;27356;50.920;5.350;2023-03-01T05:36:51;20.33;;;12.82;;
41667;SDS011;27356;50.920;5.350;2023-03-01T05:39:19;20.70;;;12.48;;
41667;SDS011;27356;50.920;5.350;2023-03-01T05:41:46;18.73;;;11.98;;
41667;SDS011;27356;50.920;5.350;2023-03-01T05:44:12;20.02;;;12.68;;
41667;SDS011;27356;50.920;5.350;2023-03-01T05:46:38;18.90;;;13.18;;
41667;SDS011;27356;50.920;5.350;2023-03-01T05:49:04;20.55;;;13.15;;
41667;SDS011;27356;50.920;5.350;2023-03-01T05:51:30;18.80;;;12.50;;
41667;SDS011;27356;50.920;5.350;2023-03-01T05:53:56;20.23;;;12.98;;
41667;SDS011;27356;50.920;5.350;2023-03-01T05:56:21;17.23;;;12.13;;
41667;SDS011;27356;50.920;5.350;2023-03-01T05:58:50;19.45;;;13.48;;
41667;SDS011;27356;50.920;5.350;2023-03-01T06:01:18;21.65;;;13.80;;
41667;SDS011;27356;50.920;5.350;2023-03-01T06:03:44;20.65;;;13.38;;
41667;SDS011;27356;50.920;5.350;2023-03-01T06:06:09;19.70;;;12.07;;
41667;SDS011;27356;50.920;5.350;2023-03-01T06:08:35;24.27;;;14.15;;
41667;SDS011;27356;50.920;5.350;2023-03-01T06:11:01;21.30;;;12.98;;
41667;SDS011;27356;50.920;5.350;2023-03-01T06:13:27;22.73;;;13.25;;
41667;SDS011;27356;50.920;5.350;2023-03-01T06:15:52;24.92;;;13.68;;
41667;SDS011;27356;50.920;5.350;2023-03-01T06:18:18;23.52;;;13.85;;
41667;SDS011;27356;50.920;5.350;2023-03-01T06:20:44;19.92;;;12.80;;
41667;SDS011;27356;50.920;5.350;2023-03-01T06:23:09;22.38;;;13.07;;
41667;SDS011;27356;50.920;5.350;2023-03-01T06:25:35;20.77;;;12.65;;
41667;SDS011;27356;50.920;5.350;2023-03-01T06:28:02;23.58;;;13.38;;
41667;SDS011;27356;50.920;5.350;2023-03-01T06:30:29;21.05;;;13.20;;
41667;SDS011;27356;50.920;5.350;2023-03-01T06:32:55;22.95;;;13.35;;
41667;SDS011;27356;50.920;5.350;2023-03-01T06:35:25;17.42;;;13.43;;
41667;SDS011;27356;50.920;5.350;2023-03-01T06:37:54;21.60;;;11.93;;
41667;SDS011;27356;50.920;5.350;2023-03-01T06:40:21;22.27;;;13.80;;
41667;SDS011;27356;50.920;5.350;2023-03-01T06:42:47;22.27;;;13.23;;
41667;SDS011;27356;50.920;5.350;2023-03-01T06:45:14;24.55;;;13.70;;
41667;SDS011;27356;50.920;5.350;2023-03-01T06:47:40;21.10;;;13.95;;
41667;SDS011;27356;50.920;5.350;2023-03-01T06:50:06;21.92;;;13.38;;
41667;SDS011;27356;50.920;5.350;2023-03-01T06:52:33;30.75;;;14.40;;
41667;SDS011;27356;50.920;5.350;2023-03-01T06:54:58;21.02;;;12.73;;
41667;SDS011;27356;50.920;5.350;2023-03-01T06:57:24;21.23;;;12.30;;
41667;SDS011;27356;50.920;5.350;2023-03-01T06:59:50;22.42;;;13.25;;
41667;SDS011;27356;50.920;5.350;2023-03-01T07:02:16;21.90;;;11.85;;
41667;SDS011;27356;50.920;5.350;2023-03-01T07:04:42;19.25;;;11.32;;
41667;SDS011;27356;50.920;5.350;2023-03-01T07:07:08;20.05;;;11.60;;
41667;SDS011;27356;50.920;5.350;2023-03-01T07:09:34;17.35;;;9.55;;
41667;SDS011;27356;50.920;5.350;2023-03-01T07:12:00;18.10;;;10.27;;
41667;SDS011;27356;50.920;5.350;2023-03-01T07:14:26;14.65;;;9.93;;
41667;SDS011;27356;50.920;5.350;2023-03-01T07:16:55;14.50;;;9.18;;
41667;SDS011;27356;50.920;5.350;2023-03-01T07:19:21;16.95;;;8.98;;
41667;SDS011;27356;50.920;5.350;2023-03-01T07:21:47;14.75;;;9.50;;
41667;SDS011;27356;50.920;5.350;2023-03-01T07:24:13;18.13;;;8.35;;
41667;SDS011;27356;50.920;5.350;2023-03-01T07:26:42;12.68;;;8.50;;
41667;SDS011;27356;50.920;5.350;2023-03-01T07:29:08;12.13;;;8.35;;
41667;SDS011;27356;50.920;5.350;2023-03-01T07:31:35;12.07;;;8.85;;
41667;SDS011;27356;50.920;5.350;2023-03-01T07:34:01;13.32;;;8.38;;
41667;SDS011;27356;50.920;5.350;2023-03-01T07:36:27;14.75;;;9.23;;
41667;SDS011;27356;50.920;5.350;2023-03-01T07:38:53;15.52;;;7.82;;
41667;SDS011;27356;50.920;5.350;2023-03-01T07:43:50;13.15;;;9.00;;
41667;SDS011;27356;50.920;5.350;2023-03-01T07:46:16;12.88;;;8.57;;
41667;SDS011;27356;50.920;5.350;2023-03-01T07:48:43;13.43;;;8.50;;
41667;SDS011;27356;50.920;5.350;2023-03-01T07:51:09;10.77;;;7.97;;
41667;SDS011;27356;50.920;5.350;2023-03-01T07:53:35;12.55;;;7.97;;
41667;SDS011;27356;50.920;5.350;2023-03-01T07:56:04;11.02;;;7.75;;
41667;SDS011;27356;50.920;5.350;2023-03-01T07:58:34;11.90;;;8.63;;
41667;SDS011;27356;50.920;5.350;2023-03-01T08:01:04;13.18;;;8.38;;
41667;SDS011;27356;50.920;5.350;2023-03-01T08:03:31;10.10;;;7.57;;
41667;SDS011;27356;50.920;5.350;2023-03-01T08:06:01;14.95;;;8.10;;
41667;SDS011;27356;50.920;5.350;2023-03-01T08:08:28;11.77;;;7.75;;
41667;SDS011;27356;50.920;5.350;2023-03-01T08:10:58;14.60;;;8.00;;
41667;SDS011;27356;50.920;5.350;2023-03-01T08:13:25;17.55;;;7.97;;
41667;SDS011;27356;50.920;5.350;2023-03-01T08:15:52;12.57;;;7.70;;
41667;SDS011;27356;50.920;5.350;2023-03-01T08:18:18;12.38;;;7.38;;
41667;SDS011;27356;50.920;5.350;2023-03-01T08:20:45;12.35;;;7.55;;
41667;SDS011;27356;50.920;5.350;2023-03-01T08:23:11;13.70;;;7.13;;
41667;SDS011;27356;50.920;5.350;2023-03-01T08:25:37;14.00;;;7.97;;
41667;SDS011;27356;50.920;5.350;2023-03-01T08:28:03;12.02;;;8.07;;
41667;SDS011;27356;50.920;5.350;2023-03-01T08:30:30;10.43;;;7.80;;
41667;SDS011;27356;50.920;5.350;2023-03-01T08:32:56;12.52;;;8.30;;
41667;SDS011;27356;50.920;5.350;2023-03-01T08:35:21;13.40;;;8.20;;
41667;SDS011;27356;50.920;5.350;2023-03-01T08:37:48;14.20;;;8.15;;
41667;SDS011;27356;50.920;5.350;2023-03-01T08:40:13;12.32;;;8.18;;
41667;SDS011;27356;50.920;5.350;2023-03-01T08:42:40;9.55;;;7.95;;
41667;SDS011;27356;50.920;5.350;2023-03-01T08:45:07;14.90;;;7.93;;
41667;SDS011;27356;50.920;5.350;2023-03-01T08:47:35;10.27;;;7.72;;
41667;SDS011;27356;50.920;5.350;2023-03-01T08:50:01;14.05;;;7.70;;
41667;SDS011;27356;50.920;5.350;2023-03-01T08:52:27;13.60;;;8.35;;
41667;SDS011;27356;50.920;5.350;2023-03-01T08:54:53;14.85;;;9.00;;
41667;SDS011;27356;50.920;5.350;2023-03-01T08:57:19;9.75;;;7.25;;
41667;SDS011;27356;50.920;5.350;2023-03-01T08:59:44;11.57;;;7.68;;
41667;SDS011;27356;50.920;5.350;2023-03-01T09:02:12;12.18;;;8.10;;
41667;SDS011;27356;50.920;5.350;2023-03-01T09:04:39;13.07;;;8.00;;
41667;SDS011;27356;50.920;5.350;2023-03-01T09:07:05;9.52;;;7.55;;
41667;SDS011;27356;50.920;5.350;2023-03-01T09:09:31;14.90;;;8.40;;
41667;SDS011;27356;50.920;5.350;2023-03-01T09:11:57;11.07;;;7.32;;
41667;SDS011;27356;50.920;5.350;2023-03-01T09:14:22;15.90;;;7.85;;
41667;SDS011;27356;50.920;5.350;2023-03-01T09:16:48;15.63;;;8.32;;
41667;SDS011;27356;50.920;5.350;2023-03-01T09:19:14;15.27;;;8.95;;
41667;SDS011;27356;50.920;5.350;2023-03-01T09:21:40;11.30;;;7.97;;
41667;SDS011;27356;50.920;5.350;2023-03-01T09:24:07;11.52;;;8.50;;
41667;SDS011;27356;50.920;5.350;2023-03-01T09:26:38;21.83;;;8.20;;
41667;SDS011;27356;50.920;5.350;2023-03-01T09:29:04;11.85;;;8.13;;
41667;SDS011;27356;50.920;5.350;2023-03-01T09:31:29;14.15;;;8.80;;
41667;SDS011;27356;50.920;5.350;2023-03-01T09:33:55;12.27;;;8.43;;
41667;SDS011;27356;50.920;5.350;2023-03-01T09:36:22;11.70;;;8.55;;
41667;SDS011;27356;50.920;5.350;2023-03-01T09:38:53;14.68;;;9.32;;
41667;SDS011;27356;50.920;5.350;2023-03-01T09:44:27;17.48;;;9.95;;
41667;SDS011;27356;50.920;5.350;2023-03-01T09:46:52;14.70;;;10.00;;
41667;SDS011;27356;50.920;5.350;2023-03-01T09:49:19;17.70;;;10.40;;
41667;SDS011;27356;50.920;5.350;2023-03-01T09:52:01;16.02;;;9.35;;
41667;SDS011;27356;50.920;5.350;2023-03-01T09:54:37;15.68;;;10.68;;
41667;SDS011;27356;50.920;5.350;2023-03-01T09:57:05;15.95;;;10.90;;
41667;SDS011;27356;50.920;5.350;2023-03-01T10:04:54;16.60;;;10.10;;
41667;SDS011;27356;50.920;5.350;2023-03-01T10:09:56;22.55;;;11.20;;
41667;SDS011;27356;50.920;5.350;2023-03-01T10:12:25;26.48;;;11.05;;
41667;SDS011;27356;50.920;5.350;2023-03-01T10:14:57;18.70;;;10.98;;
41667;SDS011;27356;50.920;5.350;2023-03-01T10:20:26;19.98;;;11.30;;
41667;SDS011;27356;50.920;5.350;2023-03-01T10:22:58;16.20;;;10.00;;
41667;SDS011;27356;50.920;5.350;2023-03-01T10:28:25;21.40;;;11.98;;
41667;SDS011;27356;50.920;5.350;2023-03-01T10:31:13;17.70;;;11.18;;
41667;SDS011;27356;50.920;5.350;2023-03-01T10:33:43;22.48;;;11.25;;
41667;SDS011;27356;50.920;5.350;2023-03-01T10:36:09;19.27;;;11.10;;
41667;SDS011;27356;50.920;5.350;2023-03-01T10:38:54;25.05;;;11.27;;
41667;SDS011;27356;50.920;5.350;2023-03-01T10:41:22;21.48;;;10.82;;
41667;SDS011;27356;50.920;5.350;2023-03-01T10:43:52;19.63;;;11.55;;
41667;SDS011;27356;50.920;5.350;2023-03-01T10:49:18;17.50;;;11.25;;
41667;SDS011;27356;50.920;5.350;2023-03-01T10:51:44;17.65;;;10.68;;
41667;SDS011;27356;50.920;5.350;2023-03-01T10:54:30;20.05;;;11.05;;
41667;SDS011;27356;50.920;5.350;2023-03-01T10:57:02;18.00;;;11.90;;
41667;SDS011;27356;50.920;5.350;2023-03-01T11:02:20;18.55;;;11.13;;
41667;SDS011;27356;50.920;5.350;2023-03-01T11:05:01;20.63;;;10.73;;
41667;SDS011;27356;50.920;5.350;2023-03-01T11:07:46;18.77;;;10.68;;
41667;SDS011;27356;50.920;5.350;2023-03-01T11:10:30;22.40;;;11.93;;
41667;SDS011;27356;50.920;5.350;2023-03-01T11:15:57;18.42;;;11.55;;
41667;SDS011;27356;50.920;5.350;2023-03-01T11:18:25;18.42;;;11.57;;
41667;SDS011;27356;50.920;5.350;2023-03-01T11:20:51;21.63;;;11.88;;
41667;SDS011;27356;50.920;5.350;2023-03-01T11:23:20;19.60;;;11.00;;
41667;SDS011;27356;50.920;5.350;2023-03-01T11:26:00;21.27;;;10.55;;
41667;SDS011;27356;50.920;5.350;2023-03-01T11:28:30;19.13;;;10.23;;
41667;SDS011;27356;50.920;5.350;2023-03-01T11:38:55;17.30;;;10.32;;
41667;SDS011;27356;50.920;5.350;2023-03-01T11:41:26;16.48;;;10.02;;
41667;SDS011;27356;50.920;5.350;2023-03-01T11:43:57;16.95;;;10.73;;
41667;SDS011;27356;50.920;5.350;2023-03-01T11:46:36;16.48;;;10.02;;
41667;SDS011;27356;50.920;5.350;2023-03-01T11:57:11;15.65;;;10.68;;
41667;SDS011;27356;50.920;5.350;2023-03-01T12:03:00;14.55;;;9.73;;
41667;SDS011;27356;50.920;5.350;2023-03-01T12:22:30;15.25;;;9.73;;
41667;SDS011;27356;50.920;5.350;2023-03-01T12:25:25;17.42;;;10.57;;
41667;SDS011;27356;50.920;5.350;2023-03-01T12:28:13;16.48;;;10.82;;
41667;SDS011;27356;50.920;5.350;2023-03-01T12:31:16;21.38;;;10.93;;
41667;SDS011;27356;50.920;5.350;2023-03-01T12:51:05;15.07;;;9.17;;
41667;SDS011;27356;50.920;5.350;2023-03-01T12:53:36;16.85;;;9.15;;
41667;SDS011;27356;50.920;5.350;2023-03-01T12:56:09;13.80;;;8.90;;
41667;SDS011;27356;50.920;5.350;2023-03-01T13:09:55;14.80;;;9.45;;
41667;SDS011;27356;50.920;5.350;2023-03-01T13:20:50;14.85;;;8.65;;
41667;SDS011;27356;50.920;5.350;2023-03-01T13:33:51;15.63;;;8.77;;
41667;SDS011;27356;50.920;5.350;2023-03-01T13:38:57;13.00;;;8.45;;
41667;SDS011;27356;50.920;5.350;2023-03-01T13:44:13;16.95;;;9.00;;
41667;SDS011;27356;50.920;5.350;2023-03-01T13:46:50;11.43;;;8.27;;
41667;SDS011;27356;50.920;5.350;2023-03-01T13:49:21;13.63;;;8.85;;
41667;SDS011;27356;50.920;5.350;2023-03-01T13:54:16;17.23;;;9.27;;
41667;SDS011;27356;50.920;5.350;2023-03-01T13:57:03;11.93;;;8.32;;
41667;SDS011;27356;50.920;5.350;2023-03-01T13:59:29;14.88;;;9.35;;
41667;SDS011;27356;50.920;5.350;2023-03-01T14:01:59;13.50;;;9.10;;
41667;SDS011;27356;50.920;5.350;2023-03-01T14:04:30;13.50;;;9.10;;
41667;SDS011;27356;50.920;5.350;2023-03-01T14:10:02;18.10;;;9.60;;
41667;SDS011;27356;50.920;5.350;2023-03-01T14:20:30;12.30;;;9.30;;
41667;SDS011;27356;50.920;5.350;2023-03-01T14:23:02;12.90;;;8.20;;
41667;SDS011;27356;50.920;5.350;2023-03-01T14:25:39;15.18;;;8.13;;
41667;SDS011;27356;50.920;5.350;2023-03-01T14:28:19;16.77;;;8.27;;
41667;SDS011;27356;50.920;5.350;2023-03-01T14:30:50;12.25;;;8.32;;
41667;SDS011;27356;50.920;5.350;2023-03-01T14:33:27;19.25;;;8.38;;
41667;SDS011;27356;50.920;5.350;2023-03-01T14:38:38;12.30;;;7.80;;
41667;SDS011;27356;50.920;5.350;2023-03-01T14:41:21;14.45;;;8.90;;
41667;SDS011;27356;50.920;5.350;2023-03-01T14:43:55;11.70;;;7.75;;
41667;SDS011;27356;50.920;5.350;2023-03-01T14:46:37;10.70;;;8.25;;
41667;SDS011;27356;50.920;5.350;2023-03-01T14:52:03;14.77;;;8.43;;
41667;SDS011;27356;50.920;5.350;2023-03-01T14:54:41;16.17;;;8.40;;
41667;SDS011;27356;50.920;5.350;2023-03-01T14:57:16;14.40;;;7.85;;
41667;SDS011;27356;50.920;5.350;2023-03-01T14:59:48;21.30;;;8.65;;
41667;SDS011;27356;50.920;5.350;2023-03-01T15:02:20;16.90;;;7.60;;
41667;SDS011;27356;50.920;5.350;2023-03-01T15:04:52;15.20;;;8.05;;
41667;SDS011;27356;50.920;5.350;2023-03-01T15:07:26;14.40;;;7.10;;
41667;SDS011;27356;50.920;5.350;2023-03-01T15:09:56;13.93;;;8.35;;
41667;SDS011;27356;50.920;5.350;2023-03-01T15:12:43;11.13;;;7.88;;
41667;SDS011;27356;50.920;5.350;2023-03-01T15:20:48;13.20;;;7.60;;
41667;SDS011;27356;50.920;5.350;2023-03-01T15:23:22;10.15;;;7.50;;
41667;SDS011;27356;50.920;5.350;2023-03-01T15:25:53;11.32;;;8.10;;
41667;SDS011;27356;50.920;5.350;2023-03-01T15:28:22;10.38;;;7.22;;
41667;SDS011;27356;50.920;5.350;2023-03-01T15:31:25;13.30;;;8.27;;
41667;SDS011;27356;50.920;5.350;2023-03-01T15:33:45;9.68;;;6.45;;
41667;SDS011;27356;50.920;5.350;2023-03-01T15:45:10;8.63;;;6.18;;
41667;SDS011;27356;50.920;5.350;2023-03-01T15:47:46;10.30;;;6.97;;
41667;SDS011;27356;50.920;5.350;2023-03-01T15:50:21;12.20;;;6.78;;
41667;SDS011;27356;50.920;5.350;2023-03-01T15:52:49;12.70;;;5.90;;
41667;SDS011;27356;50.920;5.350;2023-03-01T15:55:16;15.55;;;6.47;;
41667;SDS011;27356;50.920;5.350;2023-03-01T15:57:49;11.82;;;6.85;;
41667;SDS011;27356;50.920;5.350;2023-03-01T16:00:22;12.35;;;6.82;;
41667;SDS011;27356;50.920;5.350;2023-03-01T16:02:47;13.77;;;6.85;;
41667;SDS011;27356;50.920;5.350;2023-03-01T16:05:21;11.30;;;6.65;;
41667;SDS011;27356;50.920;5.350;2023-03-01T16:07:52;9.77;;;5.88;;
41667;SDS011;27356;50.920;5.350;2023-03-01T16:10:18;10.18;;;5.95;;
41667;SDS011;27356;50.920;5.350;2023-03-01T16:12:45;32.45;;;6.18;;
41667;SDS011;27356;50.920;5.350;2023-03-01T16:15:13;9.52;;;5.57;;
41667;SDS011;27356;50.920;5.350;2023-03-01T16:17:45;9.52;;;5.75;;
41667;SDS011;27356;50.920;5.350;2023-03-01T16:20:11;7.53;;;5.38;;
41667;SDS011;27356;50.920;5.350;2023-03-01T16:22:37;7.93;;;5.68;;
41667;SDS011;27356;50.920;5.350;2023-03-01T16:25:03;9.18;;;5.47;;
41667;SDS011;27356;50.920;5.350;2023-03-01T16:27:29;10.90;;;5.88;;
41667;SDS011;27356;50.920;5.350;2023-03-01T16:29:54;7.88;;;5.40;;
41667;SDS011;27356;50.920;5.350;2023-03-01T16:32:20;8.48;;;5.75;;
41667;SDS011;27356;50.920;5.350;2023-03-01T16:34:46;9.45;;;5.72;;
41667;SDS011;27356;50.920;5.350;2023-03-01T16:37:14;11.23;;;5.45;;
41667;SDS011;27356;50.920;5.350;2023-03-01T16:39:40;10.25;;;5.88;;
41667;SDS011;27356;50.920;5.350;2023-03-01T16:42:06;9.20;;;5.47;;
41667;SDS011;27356;50.920;5.350;2023-03-01T16:44:32;9.15;;;5.32;;
41667;SDS011;27356;50.920;5.350;2023-03-01T16:46:57;9.50;;;5.60;;
41667;SDS011;27356;50.920;5.350;2023-03-01T16:49:23;8.32;;;5.47;;
41667;SDS011;27356;50.920;5.350;2023-03-01T16:51:48;8.90;;;5.32;;
41667;SDS011;27356;50.920;5.350;2023-03-01T16:54:14;11.55;;;5.40;;
41667;SDS011;27356;50.920;5.350;2023-03-01T16:56:40;10.05;;;5.30;;
41667;SDS011;27356;50.920;5.350;2023-03-01T16:59:06;14.13;;;6.10;;
41667;SDS011;27356;50.920;5.350;2023-03-01T17:01:32;11.40;;;5.78;;
41667;SDS011;27356;50.920;5.350;2023-03-01T17:04:03;12.30;;;5.63;;
41667;SDS011;27356;50.920;5.350;2023-03-01T17:06:29;13.80;;;6.20;;
41667;SDS011;27356;50.920;5.350;2023-03-01T17:08:56;9.90;;;5.57;;
41667;SDS011;27356;50.920;5.350;2023-03-01T17:11:23;9.10;;;6.25;;
41667;SDS011;27356;50.920;5.350;2023-03-01T17:13:49;9.38;;;5.93;;
41667;SDS011;27356;50.920;5.350;2023-03-01T17:16:17;8.50;;;5.40;;
41667;SDS011;27356;50.920;5.350;2023-03-01T17:18:44;11.43;;;6.43;;
41667;SDS011;27356;50.920;5.350;2023-03-01T17:21:12;9.18;;;6.18;;